createdAt,value
2022-09-20T00:01:21.943Z,4.00
2022-09-20T00:03:52.072Z,1.88
2022-09-20T00:06:22.513Z,2.72
2022-09-20T00:08:50.420Z,4.32
2022-09-20T00:11:20.218Z,6.25
2022-09-20T00:13:49.979Z,3.88
2022-09-20T00:16:24.168Z,3.53
2022-09-20T00:18:53.137Z,2.08
2022-09-20T00:21:23.593Z,2.25
2022-09-20T00:23:52.601Z,3.10
2022-09-20T00:26:21.179Z,2.45
2022-09-20T00:28:48.477Z,5.65
2022-09-20T00:31:16.359Z,3.13
2022-09-20T00:34:02.735Z,2.47
2022-09-20T00:36:30.235Z,4.53
2022-09-20T00:39:00.005Z,3.13
2022-09-20T00:41:28.483Z,2.95
2022-09-20T00:43:56.519Z,3.13
2022-09-20T00:46:29.798Z,2.47
2022-09-20T00:49:04.107Z,2.35
2022-09-20T00:51:35.323Z,2.33
2022-09-20T00:54:05.842Z,7.57
2022-09-20T00:56:37.000Z,2.17
2022-09-20T00:59:10.174Z,4.57
2022-09-20T01:01:37.945Z,3.08
2022-09-20T01:04:05.859Z,3.60
2022-09-20T01:06:34.865Z,3.28
2022-09-20T01:09:05.710Z,3.85
2022-09-20T01:11:35.717Z,4.80
2022-09-20T01:14:02.981Z,2.47
2022-09-20T01:16:32.274Z,2.67
2022-09-20T01:19:05.655Z,2.35
2022-09-20T01:21:34.890Z,4.07
2022-09-20T01:24:25.205Z,3.20
2022-09-20T01:27:13.036Z,4.05
2022-09-20T01:30:08.698Z,3.65
2022-09-20T01:33:03.135Z,3.55
2022-09-20T01:35:34.538Z,4.10
2022-09-20T01:38:03.091Z,6.10
2022-09-20T01:41:04.647Z,2.63
2022-09-20T01:43:55.254Z,5.70
2022-09-20T01:46:31.786Z,3.65
2022-09-20T01:49:33.896Z,2.88
2022-09-20T01:52:19.821Z,4.47
2022-09-20T01:55:02.314Z,2.28
2022-09-20T01:58:05.050Z,3.35
2022-09-20T02:01:04.708Z,1.55
2022-09-20T02:04:09.541Z,1.67
2022-09-20T02:07:07.511Z,2.05
2022-09-20T02:10:16.160Z,3.10
2022-09-20T02:13:01.401Z,2.90
2022-09-20T02:15:36.837Z,2.63
2022-09-20T02:18:22.442Z,2.63
2022-09-20T02:21:05.597Z,1.27
2022-09-20T02:23:45.791Z,2.15
2022-09-20T02:26:22.008Z,2.88
2022-09-20T02:28:52.063Z,5.97
2022-09-20T02:31:58.835Z,2.80
2022-09-20T02:34:29.532Z,3.50
2022-09-20T02:37:21.447Z,2.08
2022-09-20T02:40:32.625Z,1.52
2022-09-20T02:43:23.147Z,1.80
2022-09-20T02:46:24.679Z,1.83
2022-09-20T02:49:16.000Z,2.70
2022-09-20T02:52:04.937Z,3.55
2022-09-20T02:54:54.837Z,2.10
2022-09-20T02:57:27.376Z,4.82
2022-09-20T03:00:17.101Z,4.32
2022-09-20T03:03:16.082Z,2.15
2022-09-20T03:06:07.601Z,2.85
2022-09-20T03:08:49.961Z,1.98
2022-09-20T03:11:28.087Z,5.05
2022-09-20T03:14:09.687Z,2.13
2022-09-20T03:16:58.829Z,1.80
2022-09-20T03:19:51.659Z,2.25
2022-09-20T03:22:39.651Z,1.20
2022-09-20T03:25:25.576Z,2.25
2022-09-20T03:28:17.321Z,2.95
2022-09-20T03:30:52.252Z,3.08
2022-09-20T03:33:46.072Z,4.60
2022-09-20T03:36:38.237Z,3.65
2022-09-20T03:39:43.047Z,6.82
2022-09-20T03:42:20.135Z,7.47
2022-09-20T03:45:15.738Z,9.90
2022-09-20T03:48:29.913Z,7.40
2022-09-20T03:51:20.847Z,7.82
2022-09-20T03:54:03.297Z,6.53
2022-09-20T03:56:30.592Z,4.40
2022-09-20T03:59:06.483Z,6.25
2022-09-20T04:01:48.895Z,3.65
2022-09-20T04:04:44.669Z,3.70
2022-09-20T04:07:52.534Z,2.80
2022-09-20T04:10:41.294Z,6.18
2022-09-20T04:13:29.991Z,3.08
2022-09-20T04:16:09.604Z,5.30
2022-09-20T04:18:55.833Z,5.15
2022-09-20T04:21:28.228Z,1.67
2022-09-20T04:24:16.753Z,3.97
2022-09-20T04:26:52.166Z,3.55
2022-09-20T04:29:54.403Z,3.45
2022-09-20T04:32:47.233Z,2.80
2022-09-20T04:35:52.119Z,2.40
2022-09-20T04:38:21.377Z,2.97
2022-09-20T04:41:04.328Z,4.75
2022-09-20T04:44:07.533Z,3.10
2022-09-20T04:46:56.392Z,3.53
2022-09-20T04:49:41.889Z,16.58
2022-09-20T04:52:21.224Z,14.85
2022-09-20T04:55:20.911Z,37.72
2022-09-20T04:58:20.008Z,5.72
2022-09-20T05:01:11.318Z,18.90
2022-09-20T05:03:59.793Z,23.55
2022-09-20T05:06:36.377Z,7.10
2022-09-20T05:09:35.984Z,19.00
2022-09-20T05:12:07.129Z,24.33
2022-09-20T05:15:08.480Z,13.15
2022-09-20T05:17:53.908Z,15.48
2022-09-20T05:20:39.547Z,24.85
2022-09-20T05:23:35.040Z,13.95
2022-09-20T05:26:09.033Z,14.10
2022-09-20T05:28:55.137Z,18.30
2022-09-20T05:31:31.077Z,12.18
2022-09-20T05:34:39.495Z,23.10
2022-09-20T05:37:35.706Z,15.05
2022-09-20T05:40:18.182Z,23.85
2022-09-20T05:43:13.597Z,15.43
2022-09-20T05:45:50.395Z,19.08
2022-09-20T05:48:52.812Z,22.15
2022-09-20T05:51:23.277Z,15.60
2022-09-20T05:54:09.489Z,18.85
2022-09-20T05:57:08.245Z,15.23
2022-09-20T05:59:45.561Z,31.25
2022-09-20T06:02:24.984Z,19.35
2022-09-20T06:05:09.545Z,26.20
2022-09-20T06:07:55.116Z,31.70
2022-09-20T06:10:54.843Z,24.17
2022-09-20T06:14:04.009Z,19.63
2022-09-20T06:16:44.143Z,18.73
2022-09-20T06:19:35.635Z,22.65
2022-09-20T06:22:25.774Z,15.93
2022-09-20T06:25:11.314Z,29.33
2022-09-20T06:27:45.972Z,22.73
2022-09-20T06:30:20.276Z,15.60
2022-09-20T06:33:06.659Z,24.60
2022-09-20T06:35:39.442Z,14.05
2022-09-20T06:38:47.719Z,13.68
2022-09-20T06:41:28.820Z,9.02
2022-09-20T06:44:01.406Z,10.77
2022-09-20T06:46:31.168Z,14.27
2022-09-20T06:48:58.991Z,8.20
2022-09-20T06:51:29.014Z,5.13
2022-09-20T06:53:57.833Z,7.40
2022-09-20T06:56:31.555Z,4.53
2022-09-20T06:59:00.506Z,7.57
2022-09-20T07:01:30.541Z,8.98
2022-09-20T07:03:59.232Z,7.70
2022-09-20T07:06:26.985Z,7.05
2022-09-20T07:08:54.482Z,8.32
2022-09-20T07:11:23.459Z,5.38
2022-09-20T07:13:55.393Z,6.65
2022-09-20T07:16:22.883Z,10.70
2022-09-20T07:18:52.594Z,9.55
2022-09-20T07:21:21.634Z,9.48
2022-09-20T07:23:49.416Z,5.68
2022-09-20T07:26:20.405Z,8.57
2022-09-20T07:28:48.271Z,10.55
2022-09-20T07:31:17.232Z,15.30
2022-09-20T07:33:45.101Z,10.23
2022-09-20T07:36:13.116Z,9.70
2022-09-20T07:38:42.439Z,6.47
2022-09-20T07:41:10.986Z,13.27
2022-09-20T07:43:39.994Z,14.93
2022-09-20T07:46:10.533Z,16.42
2022-09-20T07:48:38.558Z,8.60
2022-09-20T07:51:09.161Z,17.50
2022-09-20T07:53:37.765Z,13.07
2022-09-20T07:56:10.626Z,10.23
2022-09-20T07:58:38.500Z,9.50
2022-09-20T08:01:08.472Z,9.20
2022-09-20T08:03:36.794Z,9.60
2022-09-20T08:06:07.802Z,12.25
2022-09-20T08:08:36.636Z,7.43
2022-09-20T08:11:13.091Z,19.25
2022-09-20T08:16:38.566Z,12.40
2022-09-20T08:19:06.023Z,13.07
2022-09-20T08:21:35.662Z,17.80
2022-09-20T08:24:04.247Z,13.05
2022-09-20T08:26:34.161Z,9.18
2022-09-20T08:29:01.827Z,19.58
2022-09-20T08:31:35.702Z,10.60
2022-09-20T08:34:07.051Z,8.85
2022-09-20T08:36:37.249Z,10.68
2022-09-20T08:42:14.471Z,10.02
2022-09-20T08:44:59.592Z,14.82
2022-09-20T08:47:33.473Z,11.85
2022-09-20T08:50:17.033Z,20.70
2022-09-20T08:52:48.788Z,14.48
2022-09-20T08:55:23.315Z,13.77
2022-09-20T08:57:54.001Z,8.20
2022-09-20T09:00:29.695Z,10.27
2022-09-20T09:03:01.162Z,9.57
2022-09-20T09:05:39.994Z,16.88
2022-09-20T09:08:16.910Z,19.33
2022-09-20T09:10:48.353Z,15.77
2022-09-20T09:13:24.091Z,7.18
2022-09-20T09:16:06.888Z,10.02
2022-09-20T09:18:37.973Z,5.63
2022-09-20T09:21:07.930Z,8.70
2022-09-20T09:23:45.781Z,8.63
2022-09-20T09:26:20.157Z,9.70
2022-09-20T09:28:48.643Z,6.70
2022-09-20T09:31:26.354Z,12.45
2022-09-20T09:33:53.962Z,9.27
2022-09-20T09:36:25.644Z,8.32
2022-09-20T09:39:16.605Z,8.55
2022-09-20T09:41:44.596Z,6.05
2022-09-20T09:44:27.955Z,6.35
2022-09-20T09:46:57.449Z,4.78
2022-09-20T09:49:36.509Z,7.72
2022-09-20T09:52:24.908Z,8.38
2022-09-20T09:55:00.414Z,14.02
2022-09-20T09:58:03.431Z,8.70
2022-09-20T10:00:31.677Z,8.73
2022-09-20T10:03:14.116Z,7.20
2022-09-20T10:06:10.783Z,5.22
2022-09-20T10:09:13.207Z,4.85
2022-09-20T10:11:58.988Z,7.53
2022-09-20T10:14:31.045Z,6.03
2022-09-20T10:17:18.049Z,9.52
2022-09-20T10:19:57.618Z,6.95
2022-09-20T10:22:31.433Z,8.23
2022-09-20T10:25:35.172Z,7.90
2022-09-20T10:28:20.556Z,9.02
2022-09-20T10:30:58.664Z,6.25
2022-09-20T10:33:32.814Z,5.00
2022-09-20T10:36:12.562Z,8.85
2022-09-20T10:38:40.028Z,7.30
2022-09-20T10:41:51.468Z,4.82
2022-09-20T10:44:19.160Z,5.03
2022-09-20T10:46:53.302Z,4.45
2022-09-20T10:49:38.927Z,4.53
2022-09-20T10:55:06.539Z,5.25
2022-09-20T10:57:46.948Z,5.00
2022-09-20T11:00:28.182Z,4.57
2022-09-20T11:03:07.639Z,9.00
2022-09-20T11:06:08.779Z,5.65
2022-09-20T11:08:38.463Z,5.70
2022-09-20T11:11:20.189Z,4.70
2022-09-20T11:14:22.377Z,10.50
2022-09-20T11:16:57.953Z,6.82
2022-09-20T11:19:51.149Z,6.40
2022-09-20T11:22:40.890Z,4.40
2022-09-20T11:25:28.739Z,5.78
2022-09-20T11:28:25.785Z,11.40
2022-09-20T11:31:19.190Z,13.25
2022-09-20T11:34:16.647Z,4.28
2022-09-20T11:36:54.818Z,7.75
2022-09-20T11:39:28.216Z,4.88
2022-09-20T11:42:00.584Z,6.43
2022-09-20T11:44:28.350Z,5.22
2022-09-20T11:47:10.405Z,6.13
2022-09-20T11:49:58.710Z,5.90
2022-09-20T11:53:00.114Z,7.15
2022-09-20T11:55:51.015Z,5.40
2022-09-20T11:58:22.714Z,3.97
2022-09-20T12:00:54.659Z,10.25
2022-09-20T12:03:34.158Z,5.43
2022-09-20T12:06:09.864Z,4.20
2022-09-20T12:08:41.103Z,9.43
2022-09-20T12:11:14.970Z,6.13
2022-09-20T12:13:52.882Z,4.30
2022-09-20T12:16:46.779Z,12.90
2022-09-20T12:19:32.480Z,5.40
2022-09-20T12:21:59.834Z,8.35
2022-09-20T12:24:32.501Z,4.28
2022-09-20T12:27:25.036Z,7.50
2022-09-20T12:30:21.571Z,6.60
2022-09-20T12:32:52.425Z,5.55
2022-09-20T12:35:40.480Z,6.78
2022-09-20T12:38:29.345Z,7.22
2022-09-20T12:41:03.943Z,4.55
2022-09-20T12:43:34.451Z,4.28
2022-09-20T12:46:06.453Z,8.00
2022-09-20T12:48:39.431Z,4.33
2022-09-20T12:51:41.316Z,10.20
2022-09-20T12:54:12.108Z,4.65
2022-09-20T12:56:41.872Z,4.38
2022-09-20T12:59:25.317Z,5.82
2022-09-20T13:01:58.130Z,7.55
2022-09-20T13:04:55.590Z,13.27
2022-09-20T13:07:44.182Z,10.90
2022-09-20T13:10:24.111Z,9.02
2022-09-20T13:12:58.298Z,4.57
2022-09-20T13:15:26.690Z,6.15
2022-09-20T13:17:56.692Z,5.78
2022-09-20T13:20:29.535Z,4.30
2022-09-20T13:23:00.426Z,6.78
2022-09-20T13:25:32.676Z,7.75
2022-09-20T13:28:07.945Z,5.82
2022-09-20T13:33:24.605Z,4.63
2022-09-20T13:35:54.887Z,4.53
2022-09-20T13:38:25.358Z,5.95
2022-09-20T13:40:58.660Z,5.93
2022-09-20T13:43:36.926Z,3.38
2022-09-20T13:46:22.526Z,3.15
2022-09-20T13:48:59.937Z,1.35
2022-09-20T13:51:28.812Z,2.95
2022-09-20T13:54:27.768Z,3.50
2022-09-20T13:56:59.197Z,4.32
2022-09-20T13:59:33.912Z,6.25
2022-09-20T14:02:01.971Z,7.60
2022-09-20T14:04:31.648Z,6.45
2022-09-20T14:07:01.101Z,4.90
2022-09-20T14:09:36.329Z,2.22
2022-09-20T14:14:34.715Z,6.30
2022-09-20T14:17:06.434Z,6.32
2022-09-20T14:19:41.458Z,4.03
2022-09-20T14:22:16.543Z,8.13
2022-09-20T14:25:04.625Z,4.53
2022-09-20T14:27:32.895Z,1.67
2022-09-20T14:30:02.537Z,5.43
2022-09-20T14:32:43.262Z,4.90
2022-09-20T14:35:20.603Z,4.72
2022-09-20T14:37:51.528Z,4.53
2022-09-20T14:40:34.667Z,2.78
2022-09-20T14:43:04.866Z,1.63
2022-09-20T14:45:43.364Z,6.10
2022-09-20T14:48:17.037Z,2.85
2022-09-20T14:50:47.540Z,2.15
2022-09-20T14:53:27.150Z,1.58
2022-09-20T14:56:06.615Z,3.25
2022-09-20T14:58:55.405Z,2.75
2022-09-20T15:01:26.074Z,3.10
2022-09-20T15:03:54.036Z,4.05
2022-09-20T15:06:21.387Z,3.85
2022-09-20T15:08:51.008Z,3.92
2022-09-20T15:11:19.521Z,4.70
2022-09-20T15:13:46.909Z,4.25
2022-09-20T15:16:17.916Z,4.53
2022-09-20T15:18:45.593Z,5.30
2022-09-20T15:21:15.446Z,5.03
2022-09-20T15:23:43.192Z,3.75
2022-09-20T15:26:13.842Z,5.25
2022-09-20T15:28:44.167Z,6.18
2022-09-20T15:31:13.813Z,3.20
2022-09-20T15:33:42.012Z,2.45
2022-09-20T15:36:10.527Z,3.17
2022-09-20T15:38:48.228Z,2.63
2022-09-20T15:41:15.680Z,4.90
2022-09-20T15:43:44.553Z,3.78
2022-09-20T15:46:29.193Z,2.13
2022-09-20T15:48:57.196Z,4.30
2022-09-20T15:51:24.694Z,3.60
2022-09-20T15:53:59.514Z,4.22
2022-09-20T15:56:29.153Z,6.25
2022-09-20T15:59:00.553Z,6.75
2022-09-20T16:01:41.007Z,3.78
2022-09-20T16:04:14.013Z,6.32
2022-09-20T16:06:43.924Z,3.58
2022-09-20T16:09:12.186Z,4.68
2022-09-20T16:11:40.184Z,8.10
2022-09-20T16:14:07.950Z,3.58
2022-09-20T16:16:40.018Z,6.30
2022-09-20T16:19:21.143Z,7.30
2022-09-20T16:21:59.299Z,5.35
2022-09-20T16:24:32.182Z,2.95
2022-09-20T16:27:03.619Z,4.22
2022-09-20T16:29:31.344Z,3.60
2022-09-20T16:32:00.511Z,8.85
2022-09-20T16:34:36.565Z,13.13
2022-09-20T16:37:12.062Z,5.05
2022-09-20T16:42:15.610Z,5.35
2022-09-20T16:50:55.154Z,7.85
2022-09-20T16:53:26.206Z,7.20
2022-09-20T16:56:04.697Z,7.35
2022-09-20T16:58:32.555Z,14.25
2022-09-20T17:01:10.078Z,7.00
2022-09-20T17:03:46.592Z,5.65
2022-09-20T17:06:36.387Z,6.63
2022-09-20T17:09:11.852Z,5.55
2022-09-20T17:11:49.918Z,7.07
2022-09-20T17:14:30.388Z,6.28
2022-09-20T17:17:07.125Z,5.93
2022-09-20T17:19:42.815Z,9.50
2022-09-20T17:22:23.248Z,7.63
2022-09-20T17:24:50.629Z,7.45
2022-09-20T17:27:22.805Z,7.55
2022-09-20T17:29:52.716Z,8.05
2022-09-20T17:32:22.935Z,10.40
2022-09-20T17:34:53.701Z,4.22
2022-09-20T17:37:23.473Z,9.35
2022-09-20T17:39:51.165Z,10.32
2022-09-20T17:42:21.594Z,8.32
2022-09-20T17:44:49.185Z,11.27
2022-09-20T17:47:21.043Z,8.80
2022-09-20T17:49:51.418Z,7.63
2022-09-20T17:52:21.882Z,11.75
2022-09-20T17:54:49.451Z,9.93
2022-09-20T17:57:16.856Z,8.95
2022-09-20T17:59:44.321Z,11.02
2022-09-20T18:02:11.654Z,7.30
2022-09-20T18:04:39.049Z,5.03
2022-09-20T18:07:06.559Z,7.32
2022-09-20T18:09:34.172Z,6.30
2022-09-20T18:12:01.617Z,4.97
2022-09-20T18:14:30.386Z,4.97
2022-09-20T18:17:01.438Z,7.05
2022-09-20T18:19:34.015Z,4.85
2022-09-20T18:22:02.662Z,6.80
2022-09-20T18:24:30.555Z,6.72
2022-09-20T18:27:01.259Z,7.38
2022-09-20T18:29:29.574Z,6.47
2022-09-20T18:31:58.116Z,14.93
2022-09-20T18:34:31.285Z,11.45
2022-09-20T18:37:00.101Z,13.90
2022-09-20T18:39:35.586Z,4.15
2022-09-20T18:44:32.572Z,6.18
2022-09-20T18:47:01.651Z,10.30
2022-09-20T18:49:30.758Z,5.93
2022-09-20T18:51:58.691Z,3.58
2022-09-20T18:54:27.199Z,6.65
2022-09-20T18:56:54.787Z,7.15
2022-09-20T18:59:26.955Z,12.60
2022-09-20T19:02:12.592Z,12.80
2022-09-20T19:05:07.008Z,6.28
2022-09-20T19:08:08.045Z,5.13
2022-09-20T19:10:51.318Z,4.65
2022-09-20T19:13:25.901Z,7.18
2022-09-20T19:16:11.493Z,9.33
2022-09-20T19:19:15.113Z,9.65
2022-09-20T19:22:16.727Z,7.03
2022-09-20T19:25:13.654Z,7.28
2022-09-20T19:27:41.736Z,13.88
2022-09-20T19:30:13.672Z,9.13
2022-09-20T19:32:41.678Z,11.90
2022-09-20T19:35:34.422Z,10.25
2022-09-20T19:38:18.060Z,9.65
2022-09-20T19:41:14.025Z,9.55
2022-09-20T19:43:47.126Z,18.33
2022-09-20T19:46:58.423Z,12.48
2022-09-20T19:49:36.993Z,14.90
2022-09-20T19:52:09.030Z,16.20
2022-09-20T19:54:36.763Z,16.27
2022-09-20T19:57:09.942Z,11.52
2022-09-20T19:59:37.617Z,17.08
2022-09-20T20:02:05.886Z,17.27
2022-09-20T20:04:33.511Z,11.70
2022-09-20T20:07:16.783Z,11.48
2022-09-20T20:09:56.193Z,13.15
2022-09-20T20:12:41.536Z,16.83
2022-09-20T20:15:37.713Z,11.65
2022-09-20T20:18:37.441Z,15.93
2022-09-20T20:21:13.693Z,12.40
2022-09-20T20:23:48.062Z,12.98
2022-09-20T20:26:26.172Z,11.32
2022-09-20T20:28:53.898Z,13.00
2022-09-20T20:31:22.099Z,9.30
2022-09-20T20:33:54.496Z,13.35
2022-09-20T20:36:21.925Z,9.77
2022-09-20T20:38:53.379Z,8.82
2022-09-20T20:41:21.905Z,8.75
2022-09-20T20:43:56.587Z,9.93
2022-09-20T20:46:25.594Z,8.23
2022-09-20T20:48:53.138Z,9.90
2022-09-20T20:51:22.514Z,12.20
2022-09-20T20:53:52.203Z,10.10
2022-09-20T20:56:26.074Z,7.75
2022-09-20T20:58:54.383Z,9.23
2022-09-20T21:01:25.081Z,9.88
2022-09-20T21:03:54.199Z,7.25
2022-09-20T21:06:25.278Z,13.27
2022-09-20T21:08:52.923Z,9.02
2022-09-20T21:11:32.214Z,6.35
2022-09-20T21:14:01.619Z,7.75
2022-09-20T21:16:31.885Z,7.75
2022-09-20T21:18:59.516Z,7.38
2022-09-20T21:21:30.214Z,10.57
2022-09-20T21:24:00.319Z,5.57
2022-09-20T21:26:32.129Z,10.07
2022-09-20T21:29:01.659Z,8.07
2022-09-20T21:31:31.668Z,11.82
2022-09-20T21:33:59.794Z,7.55
2022-09-20T21:36:29.383Z,6.55
2022-09-20T21:38:57.219Z,6.18
2022-09-20T21:41:31.921Z,12.70
2022-09-20T21:44:00.995Z,10.73
2022-09-20T21:46:30.059Z,9.48
2022-09-20T21:48:59.973Z,7.18
2022-09-20T21:51:31.484Z,5.13
2022-09-20T21:54:01.756Z,6.80
2022-09-20T21:56:32.366Z,6.75
2022-09-20T21:59:02.815Z,6.97
2022-09-20T22:01:35.671Z,10.88
2022-09-20T22:04:08.650Z,9.68
2022-09-20T22:06:38.970Z,5.80
2022-09-20T22:09:14.975Z,6.75
2022-09-20T22:11:47.477Z,6.15
2022-09-20T22:14:16.540Z,6.82
2022-09-20T22:16:45.384Z,8.63
2022-09-20T22:19:15.350Z,5.93
2022-09-20T22:21:45.369Z,6.40
2022-09-20T22:24:14.286Z,9.07
2022-09-20T22:26:44.776Z,6.45
2022-09-20T22:29:12.467Z,9.48
2022-09-20T22:31:45.357Z,6.07
2022-09-20T22:34:18.550Z,5.18
2022-09-20T22:36:47.170Z,7.07
2022-09-20T22:39:15.574Z,5.15
2022-09-20T22:41:43.585Z,5.40
2022-09-20T22:44:11.656Z,7.15
2022-09-20T22:46:39.703Z,10.23
2022-09-20T22:49:08.676Z,6.07
2022-09-20T22:51:36.837Z,5.55
2022-09-20T22:54:09.849Z,6.70
2022-09-20T22:56:39.644Z,5.68
2022-09-20T22:59:12.107Z,7.80
2022-09-20T23:01:42.540Z,4.88
2022-09-20T23:04:13.089Z,9.63
2022-09-20T23:06:43.077Z,6.85
2022-09-20T23:09:13.185Z,8.95
2022-09-20T23:11:42.945Z,6.50
2022-09-20T23:14:21.483Z,5.18
2022-09-20T23:16:49.626Z,6.85
2022-09-20T23:19:17.684Z,9.48
2022-09-20T23:21:45.446Z,7.55
2022-09-20T23:24:14.591Z,6.88
2022-09-20T23:26:43.318Z,7.60
2022-09-20T23:29:12.931Z,6.13
2022-09-20T23:31:45.758Z,6.57
2022-09-20T23:34:14.252Z,5.65
2022-09-20T23:36:41.852Z,5.03
2022-09-20T23:39:10.476Z,9.00
2022-09-20T23:41:38.687Z,5.45
2022-09-20T23:44:10.304Z,8.32
2022-09-20T23:46:39.019Z,8.90
2022-09-20T23:49:07.647Z,5.28
2022-09-20T23:51:35.753Z,4.22
2022-09-20T23:54:03.344Z,7.30
2022-09-20T23:56:30.786Z,10.60
2022-09-20T23:58:58.240Z,4.38
